Time;durP1;ratioP1;P1;durP2;ratioP2;P2;SDS_P1;SDS_P2;PMS_P1;PMS_P2;Temp;Humidity;BMP_temperature;BMP_pressure;BME280_temperature;BME280_humidity;BME280_pressure;Samples;Min_cycle;Max_cycle;Signal;HPM_P1;HPM_P2
2022/03/01 00:02:16;;;;;;;3.00;2.53;;;1.70;51.10;0.50;99481.00;;;;5114196;28;20200;-80
2022/03/01 00:04:43;;;;;;;1.20;1.20;;;1.50;52.20;0.20;99507.00;;;;5114261;28;20204;-80
2022/03/01 00:07:10;;;;;;;1.57;1.53;;;1.30;53.50;0.40;99516.00;;;;5114107;28;20278;-80
2022/03/01 00:09:37;;;;;;;1.00;0.97;;;1.30;54.10;0.30;99518.00;;;;5114197;28;20209;-80
2022/03/01 00:12:05;;;;;;;2.07;1.97;;;1.20;54.70;0.30;99519.00;;;;5113989;28;20298;-81
2022/03/01 00:14:31;;;;;;;1.87;1.77;;;1.30;54.80;0.40;99522.00;;;;5096286;28;20219;-80
2022/03/01 00:16:58;;;;;;;2.13;2.00;;;1.30;54.90;0.40;99515.00;;;;5114079;28;20187;-80
2022/03/01 00:19:27;;;;;;;1.87;1.77;;;1.30;54.90;0.30;99509.00;;;;5114027;28;20611;-80
2022/03/01 00:21:54;;;;;;;1.93;1.83;;;1.20;54.70;0.30;99506.00;;;;5113910;28;20727;-80
2022/03/01 00:24:21;;;;;;;3.07;1.53;;;1.30;54.80;0.50;99511.00;;;;5114113;28;20282;-79
2022/03/01 00:26:50;;;;;;;2.20;2.10;;;1.30;55.00;0.50;99507.00;;;;5114086;28;20349;-80
2022/03/01 00:29:17;;;;;;;2.17;1.97;;;1.30;54.70;0.40;99510.00;;;;5113947;28;20212;-79
2022/03/01 00:31:44;;;;;;;2.00;1.90;;;1.40;54.40;0.50;99514.00;;;;5113572;28;20221;-80
2022/03/01 00:34:13;;;;;;;3.40;2.30;;;1.30;54.30;0.60;99522.00;;;;5113812;28;20222;-79
2022/03/01 00:36:42;;;;;;;3.50;1.67;;;1.30;53.90;0.60;99484.00;;;;5114038;28;20215;-80
2022/03/01 00:39:09;;;;;;;1.87;1.77;;;1.40;53.50;0.40;99523.00;;;;5114020;28;20222;-80
2022/03/01 00:41:36;;;;;;;2.47;1.60;;;1.40;53.60;0.40;99517.00;;;;5096464;28;20222;-80
2022/03/01 00:44:03;;;;;;;1.67;1.57;;;1.30;53.90;0.40;99510.00;;;;5096309;28;20205;-80
2022/03/01 00:46:30;;;;;;;2.47;2.27;;;1.30;53.00;0.40;99514.00;;;;5114860;28;20242;-80
2022/03/01 00:48:59;;;;;;;0.70;0.70;;;1.30;53.20;0.40;99511.00;;;;5117732;28;20196;-80
2022/03/01 00:51:28;;;;;;;2.37;2.17;;;1.30;52.90;0.30;99512.00;;;;5099832;28;20204;-80
2022/03/01 00:53:55;;;;;;;5.10;2.03;;;1.20;53.30;0.30;99516.00;;;;5118818;28;20226;-80
2022/03/01 00:56:23;;;;;;;1.00;1.00;;;1.20;52.50;0.50;99509.00;;;;5110442;28;20276;-79
2022/03/01 00:58:50;;;;;;;1.60;1.50;;;1.30;52.50;0.40;99502.00;;;;5128664;28;20697;-80
2022/03/01 01:01:16;;;;;;;2.10;2.00;;;1.30;52.40;0.40;99512.00;;;;5101706;28;20230;-80
2022/03/01 01:03:43;;;;;;;1.60;1.50;;;1.30;52.10;0.40;99486.00;;;;5117880;28;20336;-80
2022/03/01 01:06:10;;;;;;;2.03;1.93;;;1.30;52.40;0.40;99500.00;;;;5118119;28;20230;-80
2022/03/01 01:08:36;;;;;;;2.03;1.40;;;1.30;52.20;0.40;99491.00;;;;5125533;28;20275;-79
2022/03/01 01:11:06;;;;;;;1.53;1.43;;;1.30;51.90;0.50;99459.00;;;;5128759;28;20198;-80
2022/03/01 01:13:33;;;;;;;2.47;2.27;;;1.40;51.50;0.40;99473.00;;;;5121947;28;20195;-79
2022/03/01 01:16:03;;;;;;;1.20;1.20;;;1.30;51.20;0.30;99475.00;;;;5116825;28;20203;-80
2022/03/01 01:18:29;;;;;;;3.20;2.23;;;1.30;51.00;0.20;99474.00;;;;5116779;28;20190;-80
2022/03/01 01:20:56;;;;;;;0.87;0.87;;;1.20;50.90;0.20;99473.00;;;;5116649;28;20310;-80
2022/03/01 01:23:22;;;;;;;0.90;0.90;;;1.20;51.40;0.30;99470.00;;;;5098760;28;20575;-80
2022/03/01 01:25:49;;;;;;;4.87;2.43;;;1.20;51.80;0.30;99468.00;;;;5117013;28;20222;-80
2022/03/01 01:28:16;;;;;;;1.87;1.77;;;1.20;51.70;0.30;99456.00;;;;5117555;28;20308;-79
2022/03/01 01:30:43;;;;;;;1.73;1.63;;;1.20;52.10;0.30;99450.00;;;;5118069;28;20212;-80
2022/03/01 01:33:10;;;;;;;2.50;1.67;;;1.30;51.80;0.30;99455.00;;;;5116478;28;20190;-79
2022/03/01 01:35:37;;;;;;;1.47;1.37;;;1.20;51.70;0.30;99436.00;;;;5116376;28;20712;-81
2022/03/01 01:38:06;;;;;;;1.77;1.67;;;1.20;51.40;0.30;99453.00;;;;5116284;28;20249;-80
2022/03/01 01:40:35;;;;;;;3.43;2.13;;;1.30;52.10;0.40;99459.00;;;;5116109;28;20222;-81
2022/03/01 01:43:04;;;;;;;6.00;2.63;;;1.20;52.20;0.30;99458.00;;;;5098504;28;20203;-80
2022/03/01 01:45:31;;;;;;;2.43;2.00;;;1.20;52.00;0.30;99461.00;;;;5098265;28;20237;-81
2022/03/01 01:48:02;;;;;;;10.00;3.10;;;1.20;52.00;0.20;99449.00;;;;5116143;28;20305;-81
2022/03/01 01:50:33;;;;;;;1.83;1.73;;;1.20;52.10;0.20;99458.00;;;;5116328;28;20196;-80
2022/03/01 01:53:00;;;;;;;1.97;1.73;;;1.10;53.40;0.10;99463.00;;;;5116264;28;20206;-81
2022/03/01 01:55:28;;;;;;;3.30;1.97;;;1.10;52.80;0.20;99460.00;;;;5116183;28;20192;-80
2022/03/01 01:57:56;;;;;;;1.63;1.53;;;1.10;53.30;0.10;99459.00;;;;5115867;28;20252;-81
2022/03/01 02:00:23;;;;;;;1.60;1.50;;;1.00;53.20;0.10;99467.00;;;;5116268;28;20234;-80
2022/03/01 02:02:50;;;;;;;2.10;1.93;;;1.00;53.60;0.10;99468.00;;;;5116033;28;20628;-81
2022/03/01 02:05:17;;;;;;;1.50;1.40;;;1.00;53.70;0.10;99467.00;;;;5115906;28;20305;-80
2022/03/01 02:07:49;;;;;;;1.20;1.20;;;1.10;53.70;0.10;99464.00;;;;5097353;28;20596;-81
2022/03/01 02:10:18;;;;;;;2.27;1.80;;;1.00;54.30;-0.10;99452.00;;;;5115834;28;20522;-81
2022/03/01 02:12:45;;;;;;;1.57;1.53;;;0.90;54.00;-0.20;99448.00;;;;5115919;28;20190;-81
2022/03/01 02:15:13;;;;;;;1.60;1.50;;;0.90;53.80;0.00;99443.00;;;;5115819;28;20289;-80
2022/03/01 02:17:42;;;;;;;2.63;2.43;;;0.80;54.10;0.00;99417.00;;;;5097857;28;20643;-81
2022/03/01 02:20:14;;;;;;;1.87;1.77;;;0.90;54.00;0.00;99453.00;;;;5097790;28;20538;-81
2022/03/01 02:22:41;;;;;;;1.97;1.87;;;0.90;53.90;-0.10;99416.00;;;;5115643;28;20292;-81
2022/03/01 02:25:08;;;;;;;3.47;1.83;;;0.90;54.00;0.00;99448.00;;;;5115558;28;20638;-80
2022/03/01 02:27:35;;;;;;;2.40;2.30;;;0.90;53.70;0.00;99454.00;;;;5115422;28;20313;-80
2022/03/01 02:30:02;;;;;;;1.97;1.53;;;0.90;53.70;0.10;99462.00;;;;5115520;28;20199;-81
2022/03/01 02:32:29;;;;;;;1.73;1.63;;;0.90;54.00;0.00;99465.00;;;;5115525;28;20290;-81
2022/03/01 02:34:58;;;;;;;1.50;1.40;;;0.90;53.60;-0.20;99452.00;;;;5115600;28;20644;-81
2022/03/01 02:37:25;;;;;;;3.03;1.63;;;0.80;53.70;-0.30;99455.00;;;;5115495;28;20194;-80
2022/03/01 02:39:53;;;;;;;1.60;1.50;;;0.80;54.00;-0.20;99462.00;;;;5114627;28;20297;-80
2022/03/01 02:42:20;;;;;;;2.77;2.50;;;0.80;54.40;-0.20;99460.00;;;;5115461;28;20233;-81
2022/03/01 02:44:48;;;;;;;2.43;2.00;;;0.70;54.30;-0.50;99452.00;;;;5115269;28;20198;-81
2022/03/01 02:47:15;;;;;;;1.73;1.67;;;0.60;54.00;-0.30;99451.00;;;;5115209;28;20226;-81
2022/03/01 02:49:42;;;;;;;2.47;2.17;;;0.50;54.50;-0.60;99457.00;;;;5115221;28;20285;-81
2022/03/01 02:52:09;;;;;;;2.70;2.50;;;0.50;54.20;-0.50;99454.00;;;;5115152;28;20191;-81
2022/03/01 02:54:36;;;;;;;1.67;1.57;;;0.40;54.50;-0.70;99456.00;;;;5115151;28;20511;-81
2022/03/01 02:57:03;;;;;;;1.77;1.67;;;0.40;54.30;-0.50;99452.00;;;;5115198;28;20297;-81
2022/03/01 02:59:31;;;;;;;2.27;2.07;;;0.40;54.90;-0.40;99447.00;;;;5115167;28;20281;-81
2022/03/01 03:01:58;;;;;;;6.43;2.53;;;0.40;55.00;-0.40;99447.00;;;;5115052;28;20272;-80
2022/03/01 03:04:28;;;;;;;2.07;1.93;;;0.50;54.50;-0.50;99445.00;;;;5115052;28;20222;-81
2022/03/01 03:06:55;;;;;;;3.83;1.60;;;0.40;54.40;-0.50;99447.00;;;;5114849;28;20272;-81
2022/03/01 03:09:24;;;;;;;1.13;1.13;;;0.40;54.60;-0.50;99450.00;;;;5114338;28;20279;-81
2022/03/01 03:11:51;;;;;;;2.23;2.03;;;0.40;54.90;-0.50;99447.00;;;;5114928;28;20229;-80
2022/03/01 03:14:18;;;;;;;1.13;1.13;;;0.40;55.10;-0.60;99446.00;;;;5114858;28;20225;-81
2022/03/01 03:16:44;;;;;;;1.67;1.57;;;0.30;54.70;-0.60;99444.00;;;;5114727;28;20198;-80
2022/03/01 03:19:15;;;;;;;2.10;2.00;;;0.30;54.50;-0.80;99441.00;;;;5114952;28;20653;-80
2022/03/01 03:21:43;;;;;;;0.87;0.87;;;0.20;54.60;-0.80;99443.00;;;;5114702;28;20250;-81
2022/03/01 03:24:10;;;;;;;1.67;1.57;;;0.10;54.80;-0.80;99452.00;;;;5097086;28;20541;-81
2022/03/01 03:26:36;;;;;;;1.20;1.20;;;0.10;55.00;-0.90;99444.00;;;;5114570;28;20557;-81
2022/03/01 03:29:04;;;;;;;2.67;1.87;;;0.10;55.40;-0.90;99438.00;;;;5114785;28;20200;-79
2022/03/01 03:31:31;;;;;;;1.93;1.50;;;0.10;55.60;-0.90;99441.00;;;;5114883;28;20209;-81
2022/03/01 03:33:57;;;;;;;1.30;1.30;;;0.10;55.90;-1.10;99431.00;;;;5114771;28;20304;-81
2022/03/01 03:36:24;;;;;;;1.57;1.53;;;0.00;56.40;-0.90;99433.00;;;;5115439;28;20212;-82
2022/03/01 03:38:50;;;;;;;1.70;1.60;;;0.00;56.30;-0.80;99436.00;;;;5115419;28;20637;-82
2022/03/01 03:41:17;;;;;;;1.67;1.57;;;0.10;56.10;-0.90;99440.00;;;;5114751;28;20246;-81
2022/03/01 03:43:43;;;;;;;1.53;1.43;;;0.10;55.90;-0.90;99440.00;;;;5114553;28;20232;-80
2022/03/01 03:46:11;;;;;;;2.33;1.50;;;0.00;55.60;-0.80;99443.00;;;;5114182;28;20220;-80
2022/03/01 03:48:37;;;;;;;1.50;1.10;;;0.10;55.50;-0.80;99428.00;;;;5114502;28;20190;-80
2022/03/01 03:51:04;;;;;;;1.73;1.63;;;0.10;55.40;-0.80;99436.00;;;;5114319;28;20308;-80
2022/03/01 03:53:33;;;;;;;2.27;2.07;;;0.10;55.20;-0.90;99437.00;;;;5114142;28;20225;-81
2022/03/01 03:55:59;;;;;;;1.40;1.37;;;0.10;55.20;-0.90;99426.00;;;;5114417;28;20277;-81
2022/03/01 03:58:26;;;;;;;2.20;2.10;;;0.10;55.40;-1.00;99434.00;;;;5114423;28;20280;-80
2022/03/01 04:00:52;;;;;;;2.50;2.30;;;0.10;55.50;-1.00;99427.00;;;;5114343;28;20751;-79
2022/03/01 04:03:20;;;;;;;1.97;1.87;;;0.00;55.30;-1.00;99430.00;;;;5114392;28;20213;-82
2022/03/01 04:05:46;;;;;;;3.93;1.77;;;0.00;55.50;-0.90;99432.00;;;;5114450;28;20288;-81
2022/03/01 04:08:13;;;;;;;1.23;1.13;;;0.00;55.80;-0.80;99419.00;;;;5096321;28;20667;-81
2022/03/01 04:10:40;;;;;;;2.10;1.47;;;0.10;56.20;-0.80;99435.00;;;;5096412;28;20202;-81
2022/03/01 04:13:09;;;;;;;1.53;1.43;;;0.10;55.90;-1.00;99386.00;;;;5114063;28;20279;-81
2022/03/01 04:15:36;;;;;;;2.33;2.23;;;0.00;55.70;-1.00;99419.00;;;;5114464;28;20285;-80
2022/03/01 04:18:04;;;;;;;1.40;1.40;;;-0.10;56.40;-1.10;99423.00;;;;5114306;28;20261;-81
2022/03/01 04:20:31;;;;;;;3.37;3.13;;;-0.10;56.50;-1.00;99432.00;;;;5114805;28;20229;-81
2022/03/01 04:22:58;;;;;;;1.97;1.53;;;0.00;56.80;-1.00;99425.00;;;;5117962;28;20255;-81
2022/03/01 04:25:25;;;;;;;1.90;1.80;;;0.00;56.80;-1.00;99425.00;;;;5118265;28;20217;-81
2022/03/01 04:27:51;;;;;;;1.93;1.40;;;0.00;56.50;-1.00;99426.00;;;;5117966;28;20198;-80
2022/03/01 04:30:18;;;;;;;2.13;2.00;;;0.00;56.60;-0.90;99425.00;;;;5123088;28;20202;-79
2022/03/01 04:32:45;;;;;;;1.50;1.40;;;0.00;56.20;-1.00;99428.00;;;;5123809;28;20292;-79
2022/03/01 04:35:14;;;;;;;1.93;1.87;;;0.00;55.90;-0.90;99425.00;;;;5125344;28;20279;-81
2022/03/01 04:37:43;;;;;;;1.93;1.83;;;0.10;55.70;-0.80;99434.00;;;;5118360;28;20670;-81
2022/03/01 04:40:14;;;;;;;5.90;1.83;;;0.10;55.80;-0.90;99418.00;;;;5119787;28;20218;-81
2022/03/01 04:42:43;;;;;;;4.83;1.83;;;0.10;55.20;-0.90;99430.00;;;;5119185;28;20213;-81
2022/03/01 04:45:12;;;;;;;1.57;1.53;;;0.00;55.20;-1.00;99425.00;;;;5130389;28;20302;-81
2022/03/01 04:47:41;;;;;;;4.13;2.27;;;0.00;55.40;-1.00;99427.00;;;;5128478;28;20198;-81
2022/03/01 04:50:08;;;;;;;7.30;2.30;;;0.00;55.50;-0.80;99414.00;;;;5117673;28;20206;-82
2022/03/01 04:52:37;;;;;;;1.70;1.57;;;0.00;55.50;-1.00;99423.00;;;;5117124;28;20563;-81
2022/03/01 04:55:11;;;;;;;4.30;1.43;;;-0.10;55.30;-1.10;99411.00;;;;5117206;28;20218;-79
2022/03/01 04:57:37;;;;;;;2.23;2.13;;;-0.10;55.70;-0.90;99411.00;;;;5117116;28;20194;-80
2022/03/01 05:00:10;;;;;;;1.30;1.30;;;-0.10;56.00;-1.00;99406.00;;;;5116979;28;20261;-79
2022/03/01 05:02:40;;;;;;;3.90;1.83;;;-0.10;55.80;-1.10;99418.00;;;;5117196;28;20181;-81
2022/03/01 05:05:10;;;;;;;58.17;55.17;;;-0.20;55.80;-1.20;99411.00;;;;5117299;28;20320;-81
2022/03/01 05:07:41;;;;;;;1.93;1.67;;;-0.20;56.00;-1.10;99399.00;;;;5116905;28;20521;-80
2022/03/01 05:10:11;;;;;;;1.77;1.67;;;-0.20;55.90;-1.30;99408.00;;;;5116920;28;20198;-80
2022/03/01 05:12:42;;;;;;;1.40;1.40;;;-0.20;55.60;-1.20;99414.00;;;;5099195;28;20194;-81
2022/03/01 05:15:11;;;;;;;1.40;1.40;;;-0.30;56.00;-1.20;99426.00;;;;5117169;28;20221;-80
2022/03/01 05:17:38;;;;;;;1.43;1.33;;;-0.20;55.40;-1.10;99418.00;;;;5116545;28;20713;-81
2022/03/01 05:20:09;;;;;;;1.70;1.60;;;-0.20;54.60;-1.20;99422.00;;;;5117243;28;20222;-81
2022/03/01 05:22:36;;;;;;;1.60;1.50;;;-0.20;54.10;-1.30;99428.00;;;;5117580;28;20194;-80
2022/03/01 05:25:03;;;;;;;1.77;1.67;;;-0.30;54.80;-1.30;99416.00;;;;5116544;28;20205;-80
2022/03/01 05:27:32;;;;;;;2.63;1.60;;;-0.30;55.30;-1.20;99412.00;;;;5116685;28;20282;-81
2022/03/01 05:30:01;;;;;;;1.37;1.27;;;-0.20;55.20;-1.30;99414.00;;;;5116538;28;20213;-81
2022/03/01 05:32:30;;;;;;;4.80;2.33;;;-0.30;55.10;-1.40;99407.00;;;;5115764;28;20220;-80
2022/03/01 05:34:56;;;;;;;2.70;2.50;;;-0.40;56.30;-1.40;99403.00;;;;5116516;28;20193;-80
2022/03/01 05:37:23;;;;;;;4.23;1.83;;;-0.50;56.80;-1.30;99403.00;;;;5098689;28;20273;-81
2022/03/01 05:39:49;;;;;;;1.47;1.37;;;-0.50;57.10;-1.30;99411.00;;;;5098432;28;20229;-80
2022/03/01 05:42:16;;;;;;;1.60;1.50;;;-0.50;57.00;-1.40;99408.00;;;;5116492;28;20211;-80
2022/03/01 05:44:45;;;;;;;2.40;1.53;;;-0.40;56.60;-1.40;99409.00;;;;5098473;28;20225;-81
2022/03/01 05:47:14;;;;;;;10.47;2.30;;;-0.50;56.40;-1.50;99416.00;;;;5116873;28;20229;-81
2022/03/01 05:49:42;;;;;;;1.20;1.20;;;-0.50;56.30;-1.50;99425.00;;;;5098526;28;20202;-81
2022/03/01 05:52:08;;;;;;;1.60;1.50;;;-0.60;56.20;-1.60;99430.00;;;;5098208;28;20590;-81
2022/03/01 05:54:35;;;;;;;1.23;1.23;;;-0.60;56.00;-1.60;99423.00;;;;5116156;28;20348;-80
2022/03/01 05:57:02;;;;;;;2.00;1.80;;;-0.60;56.20;-1.50;99433.00;;;;5098462;28;20281;-81
2022/03/01 05:59:28;;;;;;;1.20;1.20;;;-0.60;56.10;-1.60;99435.00;;;;5116237;28;20218;-80
2022/03/01 06:01:56;;;;;;;3.87;1.30;;;-0.60;56.10;-1.70;99443.00;;;;5116011;28;20230;-80
2022/03/01 06:04:22;;;;;;;2.00;1.90;;;-0.60;56.10;-1.70;99433.00;;;;5116131;28;20190;-78
2022/03/01 06:06:49;;;;;;;1.50;1.40;;;-0.70;56.50;-1.90;99437.00;;;;5115807;28;20300;-80
2022/03/01 06:09:16;;;;;;;1.30;1.30;;;-0.80;57.20;-2.00;99435.00;;;;5115961;28;20280;-80
2022/03/01 06:11:42;;;;;;;2.37;2.17;;;-1.00;57.80;-2.00;99441.00;;;;5098053;28;20210;-79
2022/03/01 06:14:09;;;;;;;1.77;1.67;;;-1.00;58.40;-1.90;99435.00;;;;5115760;28;20190;-79
2022/03/01 06:16:38;;;;;;;1.70;1.60;;;-1.00;58.80;-1.90;99437.00;;;;5115795;28;20214;-79
2022/03/01 06:19:06;;;;;;;5.63;4.33;;;-1.00;58.80;-1.70;99440.00;;;;5115714;28;20256;-77
2022/03/01 06:21:32;;;;;;;4.40;2.70;;;-0.90;59.10;-1.90;99427.00;;;;5115864;28;20201;-79
2022/03/01 06:24:01;;;;;;;7.17;2.73;;;-0.90;58.60;-1.70;99440.00;;;;5097857;28;20209;-78
2022/03/01 06:26:27;;;;;;;4.10;2.07;;;-0.80;59.10;-1.80;99436.00;;;;5115803;28;20217;-80
2022/03/01 06:28:54;;;;;;;1.70;1.60;;;-0.90;58.50;-1.80;99441.00;;;;5115660;28;20221;-80
2022/03/01 06:31:23;;;;;;;1.80;1.70;;;-0.90;59.00;-1.80;99441.00;;;;5115564;28;20193;-80
2022/03/01 06:33:51;;;;;;;1.43;1.43;;;-0.90;58.90;-1.80;99433.00;;;;5115415;28;20228;-80
2022/03/01 06:36:19;;;;;;;1.73;1.63;;;-0.80;58.70;-1.80;99455.00;;;;5115460;28;20213;-78
2022/03/01 06:38:45;;;;;;;1.23;1.23;;;-0.90;58.60;-1.80;99467.00;;;;5115370;28;20287;-78
2022/03/01 06:41:12;;;;;;;1.43;1.43;;;-0.80;58.80;-1.80;99465.00;;;;5115444;28;20201;-77
2022/03/01 06:43:38;;;;;;;2.10;1.90;;;-0.80;58.60;-1.70;99460.00;;;;5097042;28;20208;-79
2022/03/01 06:46:08;;;;;;;1.87;1.73;;;-0.80;58.70;-1.70;99469.00;;;;5114716;28;20212;-80
2022/03/01 06:48:35;;;;;;;3.03;2.20;;;-0.70;58.50;-1.70;99453.00;;;;5115353;28;20270;-80
2022/03/01 06:51:03;;;;;;;1.10;1.10;;;-0.70;58.30;-1.50;99461.00;;;;5097632;28;20205;-80
2022/03/01 06:53:31;;;;;;;3.80;3.57;;;-0.60;58.30;-1.70;99473.00;;;;5115165;28;20300;-79
2022/03/01 06:55:57;;;;;;;2.17;1.97;;;-0.70;57.80;-1.70;99470.00;;;;5115204;28;20311;-80
2022/03/01 06:58:26;;;;;;;1.73;1.63;;;-0.80;57.70;-1.70;99469.00;;;;5115036;28;20211;-80
2022/03/01 07:00:53;;;;;;;7.13;2.53;;;-0.70;58.30;-1.60;99467.00;;;;5115116;28;20211;-79
2022/03/01 07:03:20;;;;;;;1.77;1.67;;;-0.70;58.60;-1.80;99472.00;;;;5115165;28;20192;-79
2022/03/01 07:05:47;;;;;;;3.13;2.80;;;-0.70;58.30;-1.70;99467.00;;;;5114926;28;20319;-79
2022/03/01 07:08:13;;;;;;;3.07;2.27;;;-0.70;58.90;-1.70;99477.00;;;;5115013;28;20195;-79
2022/03/01 07:10:41;;;;;;;4.77;1.97;;;-0.70;59.70;-1.50;99483.00;;;;5115066;28;20211;-81
2022/03/01 07:13:08;;;;;;;2.23;2.10;;;-0.60;58.90;-1.40;99466.00;;;;5114891;28;20289;-79
2022/03/01 07:15:37;;;;;;;1.73;1.63;;;-0.50;58.80;-1.60;99483.00;;;;5114959;28;20217;-81
2022/03/01 07:18:05;;;;;;;2.37;2.20;;;-0.50;58.00;-1.70;99501.00;;;;5115003;28;20194;-80
2022/03/01 07:20:35;;;;;;;2.50;2.23;;;-0.70;58.20;-1.70;99501.00;;;;5114700;28;20314;-80
2022/03/01 07:23:02;;;;;;;1.47;1.37;;;-0.70;58.40;-1.90;99504.00;;;;5114970;28;20197;-80
2022/03/01 07:25:28;;;;;;;1.60;1.50;;;-0.80;58.10;-1.60;99511.00;;;;5114596;28;20237;-79
2022/03/01 07:27:56;;;;;;;5.63;2.90;;;-0.70;58.30;-1.40;99499.00;;;;5114976;28;20202;-78
2022/03/01 07:30:26;;;;;;;1.73;1.63;;;-0.50;58.10;-1.40;99490.00;;;;5114838;28;20232;-79
2022/03/01 07:32:53;;;;;;;1.83;1.63;;;-0.40;57.70;-1.20;99500.00;;;;5096781;28;20236;-78
2022/03/01 07:35:19;;;;;;;1.40;1.40;;;-0.40;58.10;-1.10;99497.00;;;;5114584;28;20272;-79
2022/03/01 07:37:49;;;;;;;6.10;2.37;;;-0.30;58.20;-1.10;99496.00;;;;5114684;28;20215;-80
2022/03/01 07:40:18;;;;;;;1.27;1.27;;;-0.20;57.50;-1.00;99498.00;;;;5114581;28;20225;-77
2022/03/01 07:42:44;;;;;;;3.83;2.53;;;-0.10;57.00;-0.80;99505.00;;;;5114533;28;20289;-81
2022/03/01 07:45:13;;;;;;;1.10;1.10;;;0.10;55.90;-0.60;99498.00;;;;5114574;28;20252;-79
2022/03/01 07:47:39;;;;;;;1.10;1.10;;;0.40;55.00;-0.40;99502.00;;;;5114465;28;20198;-80
2022/03/01 07:50:10;;;;;;;1.63;1.60;;;0.40;54.30;-0.40;99487.00;;;;5114523;28;20225;-79
2022/03/01 07:52:39;;;;;;;4.57;3.07;;;0.50;53.90;-0.30;99514.00;;;;5114387;28;20286;-78
2022/03/01 07:55:07;;;;;;;3.13;2.17;;;0.60;53.00;-0.10;99511.00;;;;5114304;28;20287;-73
2022/03/01 07:57:35;;;;;;;1.37;1.27;;;0.70;52.30;0.00;99501.00;;;;5118014;28;20194;-74
2022/03/01 08:00:04;;;;;;;1.53;1.43;;;0.80;51.70;0.30;99493.00;;;;5118046;28;20276;-75
2022/03/01 08:02:31;;;;;;;1.60;1.47;;;1.10;49.70;0.30;99495.00;;;;5100273;28;20203;-74
2022/03/01 08:05:00;;;;;;;1.00;1.00;;;1.20;48.40;0.50;99497.00;;;;5118358;28;20297;-76
2022/03/01 08:07:28;;;;;;;1.33;1.33;;;1.30;46.90;0.30;99493.00;;;;5119681;28;20187;-74
2022/03/01 08:09:55;;;;;;;2.17;2.07;;;1.30;47.10;0.40;99479.00;;;;5099990;28;20521;-74
2022/03/01 08:12:21;;;;;;;1.90;1.80;;;1.30;47.20;0.60;99486.00;;;;5117864;28;20236;-73
2022/03/01 08:14:48;;;;;;;1.20;1.10;;;1.50;47.50;0.70;99474.00;;;;5118408;28;20223;-73
2022/03/01 08:17:14;;;;;;;2.90;2.70;;;1.60;46.60;0.80;99484.00;;;;5100417;28;20337;-73
2022/03/01 08:19:42;;;;;;;0.80;0.80;;;1.60;46.60;0.70;99481.00;;;;5121842;28;20655;-74
2022/03/01 08:22:10;;;;;;;1.07;1.07;;;1.60;46.50;0.90;99479.00;;;;5117991;28;20206;-75
2022/03/01 08:24:37;;;;;;;1.80;1.43;;;1.70;46.30;1.10;99477.00;;;;5117656;28;20675;-75
2022/03/01 08:27:04;;;;;;;1.97;1.87;;;1.90;45.00;1.10;99477.00;;;;5117534;28;20199;-73
2022/03/01 08:29:31;;;;;;;1.27;1.23;;;1.90;45.20;1.30;99461.00;;;;5117375;28;20301;-74
2022/03/01 08:31:57;;;;;;;2.47;1.77;;;2.10;44.50;1.40;99479.00;;;;5099642;28;20191;-74
2022/03/01 08:34:24;;;;;;;1.50;1.47;;;2.10;44.00;1.30;99476.00;;;;5117536;28;20627;-75
2022/03/01 08:36:51;;;;;;;1.80;1.70;;;2.20;43.80;1.30;99490.00;;;;5117359;28;20229;-74
2022/03/01 08:39:18;;;;;;;1.93;1.83;;;2.20;44.00;1.40;99474.00;;;;5117396;28;20275;-73
2022/03/01 08:41:44;;;;;;;1.80;1.70;;;2.20;44.00;1.50;99468.00;;;;5117444;28;20200;-73
2022/03/01 08:44:13;;;;;;;2.30;2.17;;;2.30;43.80;1.60;99470.00;;;;5117322;28;20211;-73
2022/03/01 08:46:40;;;;;;;1.47;1.37;;;2.50;42.90;1.60;99475.00;;;;5117263;28;20196;-74
2022/03/01 08:49:07;;;;;;;1.53;1.43;;;2.50;43.20;1.70;99478.00;;;;5117146;28;20314;-75
2022/03/01 08:51:36;;;;;;;1.10;1.10;;;2.60;43.40;1.80;99479.00;;;;5117148;28;20201;-75
2022/03/01 08:54:04;;;;;;;1.97;1.87;;;2.60;42.70;1.80;99465.00;;;;5117115;28;20191;-73
2022/03/01 08:56:30;;;;;;;1.83;1.73;;;2.60;43.00;2.00;99469.00;;;;5116924;28;20534;-74
2022/03/01 08:58:57;;;;;;;4.23;1.53;;;2.70;43.10;2.10;99461.00;;;;5117060;28;20219;-74
2022/03/01 09:01:23;;;;;;;1.20;1.10;;;2.90;42.10;2.10;99468.00;;;;5117057;28;20521;-72
2022/03/01 09:03:50;;;;;;;1.00;1.00;;;2.90;41.80;2.10;99460.00;;;;5099145;28;20586;-76
2022/03/01 09:06:16;;;;;;;1.63;1.50;;;3.00;41.50;2.30;99450.00;;;;5117030;28;20205;-74
2022/03/01 09:08:43;;;;;;;1.67;1.53;;;3.10;40.90;2.40;99451.00;;;;5115975;28;20235;-74
2022/03/01 09:11:11;;;;;;;1.93;1.73;;;3.20;40.50;2.30;99464.00;;;;5099025;28;20326;-73
2022/03/01 09:13:40;;;;;;;2.80;1.70;;;3.20;40.60;2.20;99454.00;;;;5117097;28;20197;-74
2022/03/01 09:16:08;;;;;;;2.60;2.40;;;3.10;40.90;2.50;99461.00;;;;5098977;28;20224;-75
2022/03/01 09:18:35;;;;;;;1.03;1.03;;;3.20;40.50;2.50;99457.00;;;;5115915;28;20212;-76
2022/03/01 09:21:02;;;;;;;1.33;1.33;;;3.30;40.20;2.60;99447.00;;;;5116647;28;20549;-74
2022/03/01 09:23:29;;;;;;;1.33;1.00;;;3.30;39.20;2.60;99466.00;;;;5116758;28;20220;-75
2022/03/01 09:25:55;;;;;;;2.30;2.13;;;3.50;38.70;2.80;99460.00;;;;5116733;28;20225;-75
2022/03/01 09:28:23;;;;;;;1.30;1.30;;;3.50;39.00;2.90;99459.00;;;;5098849;28;20221;-77
2022/03/01 09:30:50;;;;;;;1.27;1.27;;;3.60;38.70;2.80;99458.00;;;;5116536;28;20213;-75
2022/03/01 09:33:16;;;;;;;1.00;1.00;;;3.60;39.00;2.80;99435.00;;;;5116605;28;20218;-75
2022/03/01 09:35:43;;;;;;;2.60;2.40;;;3.70;38.80;3.00;99439.00;;;;5116554;28;20303;-75
2022/03/01 09:38:10;;;;;;;1.40;1.40;;;3.80;38.80;3.00;99455.00;;;;5116356;28;20506;-76
2022/03/01 09:40:36;;;;;;;2.03;1.83;;;3.80;39.00;3.20;99451.00;;;;5116397;28;20728;-75
2022/03/01 09:43:03;;;;;;;1.80;0.90;;;3.90;38.50;3.40;99448.00;;;;5116559;28;20202;-77
2022/03/01 09:45:31;;;;;;;2.33;2.13;;;4.00;37.90;3.40;99444.00;;;;5116379;28;20197;-76
2022/03/01 09:47:57;;;;;;;1.17;1.17;;;4.10;37.40;3.30;99439.00;;;;5098352;28;20201;-76
2022/03/01 09:50:28;;;;;;;1.50;1.40;;;4.20;37.00;3.40;99438.00;;;;5116330;28;20492;-74
2022/03/01 09:52:55;;;;;;;1.43;1.30;;;4.20;37.20;3.50;99434.00;;;;5116262;28;20296;-74
2022/03/01 09:55:24;;;;;;;2.03;1.67;;;4.30;37.00;3.50;99434.00;;;;5116138;28;20263;-74
2022/03/01 09:57:51;;;;;;;1.87;1.67;;;4.40;37.40;3.60;99429.00;;;;5116170;28;20233;-74
2022/03/01 10:00:20;;;;;;;1.57;1.47;;;4.40;37.10;3.70;99436.00;;;;5116081;28;20482;-73
2022/03/01 10:02:54;;;;;;;1.23;1.23;;;4.50;36.70;3.90;99443.00;;;;5116173;28;20698;-75
2022/03/01 10:05:34;;;;;;;1.37;1.33;;;4.60;36.30;4.10;99435.00;;;;5116011;28;20221;-74
2022/03/01 10:08:08;;;;;;;1.20;1.20;;;4.70;35.50;4.10;99425.00;;;;5116240;28;20673;-74
2022/03/01 10:10:40;;;;;;;1.23;1.23;;;4.80;34.80;4.10;99433.00;;;;5098093;28;20748;-75
2022/03/01 10:13:08;;;;;;;3.87;1.50;;;4.90;35.20;4.30;99434.00;;;;5098021;28;20201;-77
2022/03/01 10:15:35;;;;;;;1.77;1.67;;;5.00;34.80;4.40;99420.00;;;;5115778;28;20232;-76
2022/03/01 10:18:12;;;;;;;1.70;1.60;;;5.10;34.80;4.50;99437.00;;;;5097827;28;20249;-76
2022/03/01 10:20:40;;;;;;;9.03;1.63;;;;;4.50;99425.00;;;;5115780;28;20191;-76
2022/03/01 10:23:08;;;;;;;1.50;1.27;;;;;4.70;99424.00;;;;5115697;28;20190;-74
2022/03/01 10:25:35;;;;;;;1.57;1.47;;;;;4.90;99429.00;;;;5115637;28;20394;-74
2022/03/01 10:28:03;;;;;;;1.27;1.27;;;;;5.00;99418.00;;;;5115643;28;20193;-73
2022/03/01 10:30:33;;;;;;;1.80;1.70;;;;;5.20;99416.00;;;;5115588;28;20225;-75
2022/03/01 10:33:05;;;;;;;1.80;1.70;;;;;5.30;99419.00;;;;5115808;28;20210;-75
2022/03/01 10:35:35;;;;;;;0.97;0.97;;;;;5.50;99420.00;;;;5115383;28;20651;-72
2022/03/01 10:38:03;;;;;;;1.40;1.40;;;;;5.50;99419.00;;;;5115406;28;20214;-74
2022/03/01 10:40:32;;;;;;;1.30;1.27;;;;;5.60;99424.00;;;;5097206;28;20602;-74
2022/03/01 10:43:00;;;;;;;1.70;1.07;;;;;5.80;99414.00;;;;5115380;28;20579;-74
2022/03/01 10:45:35;;;;;;;1.93;1.73;;;;;5.90;99408.00;;;;5115414;28;20201;-73
2022/03/01 10:48:03;;;;;;;1.37;1.27;;;;;5.90;99404.00;;;;5115416;28;20513;-73
2022/03/01 10:50:30;;;;;;;2.97;1.97;;;;;6.10;99416.00;;;;5097383;28;20228;-74
2022/03/01 10:52:58;;;;;;;3.13;2.30;;;;;6.20;99415.00;;;;5115181;28;20539;-75
2022/03/01 10:55:27;;;;;;;1.30;1.00;;;;;6.40;99422.00;;;;5097231;28;20283;-74
2022/03/01 10:58:02;;;;;;;1.40;1.40;;;;;6.70;99411.00;;;;5115149;28;20281;-73
2022/03/01 11:00:33;;;;;;;2.20;1.63;;;;;6.80;99412.00;;;;5115064;28;20662;-74
2022/03/01 11:03:02;;;;;;;1.30;1.20;;;;;6.80;99416.00;;;;5097166;28;20220;-75
2022/03/01 11:05:31;;;;;;;0.80;0.80;;;;;7.10;99408.00;;;;5115194;28;20204;-73
2022/03/01 11:08:04;;;;;;;3.40;2.10;;;;;7.10;99401.00;;;;5115221;28;20236;-74
2022/03/01 11:10:32;;;;;;;1.77;1.67;;;;;7.30;99395.00;;;;5114962;28;20200;-74
2022/03/01 11:13:02;;;;;;;1.93;1.63;;;;;7.40;99392.00;;;;5115030;28;20193;-76